Time;durP1;ratioP1;P1;durP2;ratioP2;P2;SDS_P1;SDS_P2;PMS_P1;PMS_P2;Temp;Humidity;BMP_temperature;BMP_pressure;BME280_temperature;BME280_humidity;BME280_pressure;Samples;Min_cycle;Max_cycle;Signal;HPM_P1;HPM_P2
2022/02/07 00:00:15;;;;;;;11.32;8.35;;;11.00;99.90;;;;;;4992063;28;20039;-49
2022/02/07 00:05:26;;;;;;;13.88;9.57;;;11.10;99.90;;;;;;4991284;28;20042;-52
2022/02/07 00:07:56;;;;;;;13.45;10.18;;;11.10;99.90;;;;;;4988681;28;20109;-53
2022/02/07 00:10:24;;;;;;;14.63;10.13;;;11.10;99.90;;;;;;4991687;28;20042;-54
2022/02/07 00:12:52;;;;;;;15.85;10.20;;;11.00;99.90;;;;;;5000076;28;20040;-50
2022/02/07 00:15:20;;;;;;;16.35;11.05;;;11.00;99.90;;;;;;4999035;28;20073;-52
2022/02/07 00:17:48;;;;;;;13.90;10.68;;;11.00;99.90;;;;;;5003676;28;20046;-52
2022/02/07 00:20:19;;;;;;;17.23;10.38;;;11.00;99.90;;;;;;4985591;28;20039;-57
2022/02/07 00:22:47;;;;;;;16.17;9.00;;;10.90;99.90;;;;;;4976339;28;20066;-52
2022/02/07 00:25:17;;;;;;;18.02;10.27;;;11.00;99.90;;;;;;5001408;28;20169;-53
2022/02/07 00:27:45;;;;;;;12.52;10.43;;;10.90;99.90;;;;;;4997067;28;20404;-52
2022/02/07 00:30:15;;;;;;;14.63;10.20;;;10.90;99.90;;;;;;4987915;28;20409;-49
2022/02/07 00:32:43;;;;;;;14.32;9.48;;;10.80;99.90;;;;;;4991949;28;20143;-51
2022/02/07 00:35:16;;;;;;;16.35;10.23;;;10.80;99.90;;;;;;5002337;28;20145;-53
2022/02/07 00:37:46;;;;;;;13.52;9.82;;;10.80;99.90;;;;;;5002847;28;20141;-52
2022/02/07 00:43:03;;;;;;;13.90;9.55;;;10.70;99.90;;;;;;4996983;28;20039;-52
2022/02/07 00:48:11;;;;;;;14.93;10.40;;;10.70;99.90;;;;;;4992043;28;20035;-51
2022/02/07 00:50:42;;;;;;;13.23;8.95;;;10.60;99.90;;;;;;4991151;28;20476;-49
2022/02/07 00:53:13;;;;;;;13.40;9.35;;;10.60;99.90;;;;;;4991160;28;20038;-55
2022/02/07 00:55:45;;;;;;;15.95;10.32;;;10.70;99.90;;;;;;4999840;28;20065;-50
2022/02/07 00:58:13;;;;;;;13.32;9.88;;;10.60;99.90;;;;;;4996187;28;20555;-55
2022/02/07 01:00:41;;;;;;;12.73;8.85;;;10.60;99.90;;;;;;4999680;28;20050;-50
2022/02/07 01:03:10;;;;;;;13.35;9.55;;;10.70;99.90;;;;;;4998066;28;20034;-54
2022/02/07 01:05:41;;;;;;;11.65;8.85;;;10.70;99.90;;;;;;4998256;28;20112;-53
2022/02/07 01:08:26;;;;;;;13.95;9.55;;;10.70;99.90;;;;;;5003857;28;20058;-53
2022/02/07 01:14:07;;;;;;;15.88;8.60;;;10.60;99.90;;;;;;4989056;28;20062;-50
2022/02/07 01:46:05;;;;;;;15.33;8.90;;;10.90;99.90;;;;;;4995642;28;20173;-53
2022/02/07 01:50:47;;;;;;;8.63;5.25;;;11.00;99.90;;;;;;5005375;28;20488;-53
2022/02/07 01:53:16;;;;;;;7.05;5.07;;;11.00;99.90;;;;;;4990662;28;20505;-50
2022/02/07 01:55:59;;;;;;;6.85;5.00;;;11.10;99.90;;;;;;4982469;28;20378;-51
2022/02/07 01:58:26;;;;;;;13.68;5.43;;;11.10;99.90;;;;;;5003791;28;20050;-50
2022/02/07 02:00:54;;;;;;;9.38;5.45;;;11.10;99.90;;;;;;5003216;28;20038;-50
2022/02/07 02:03:22;;;;;;;8.95;5.10;;;11.20;99.90;;;;;;5000087;28;20108;-51
2022/02/07 02:05:55;;;;;;;14.40;5.00;;;11.20;99.90;;;;;;4999255;28;20043;-49
2022/02/07 02:08:39;;;;;;;8.40;4.57;;;11.20;99.90;;;;;;5001162;28;20050;-51
2022/02/07 02:11:08;;;;;;;7.50;4.57;;;11.20;99.90;;;;;;5012264;28;20225;-52
2022/02/07 02:38:14;;;;;;;6.73;5.50;;;11.20;99.90;;;;;;4996565;28;20038;-48
2022/02/07 02:46:18;;;;;;;10.48;6.10;;;11.10;99.90;;;;;;4995062;28;20043;-50
2022/02/07 02:48:50;;;;;;;13.30;5.57;;;11.10;99.90;;;;;;5000110;28;20121;-53
2022/02/07 02:51:18;;;;;;;6.75;5.75;;;11.10;99.90;;;;;;5005068;28;20085;-50
2022/02/07 02:53:45;;;;;;;13.63;6.47;;;11.10;99.90;;;;;;4992448;28;20044;-50
2022/02/07 02:56:13;;;;;;;10.73;5.95;;;11.10;99.90;;;;;;4984395;28;20138;-52
2022/02/07 02:58:50;;;;;;;8.63;5.70;;;11.10;99.90;;;;;;4998728;28;20054;-51
2022/02/07 03:01:19;;;;;;;12.27;5.82;;;11.10;99.90;;;;;;4997208;28;20042;-52
2022/02/07 03:04:07;;;;;;;10.88;5.97;;;11.10;99.90;;;;;;4990562;28;20089;-51
2022/02/07 03:06:37;;;;;;;9.20;5.30;;;11.10;99.90;;;;;;4989487;28;20060;-52
2022/02/07 03:09:13;;;;;;;8.35;6.43;;;11.10;99.90;;;;;;5000640;28;20066;-53
2022/02/07 03:11:43;;;;;;;10.75;6.93;;;11.00;99.90;;;;;;5005050;28;20125;-56
2022/02/07 03:14:20;;;;;;;9.70;6.32;;;11.10;99.90;;;;;;5005144;28;20034;-49
2022/02/07 03:16:53;;;;;;;9.18;6.40;;;11.00;99.90;;;;;;5003193;28;20069;-50
2022/02/07 03:19:21;;;;;;;9.45;5.88;;;11.00;99.90;;;;;;4993127;28;20112;-52
2022/02/07 03:21:55;;;;;;;8.82;5.88;;;11.00;99.90;;;;;;5004545;28;20046;-52
2022/02/07 03:24:23;;;;;;;8.95;5.55;;;11.00;99.90;;;;;;4980629;28;20386;-51
2022/02/07 03:27:10;;;;;;;8.57;5.82;;;10.90;99.90;;;;;;4986991;28;20540;-52
2022/02/07 03:29:44;;;;;;;11.65;6.78;;;10.90;99.90;;;;;;4999209;28;20133;-56
2022/02/07 03:32:15;;;;;;;9.95;6.18;;;10.90;99.90;;;;;;4997751;28;20065;-49
2022/02/07 03:34:52;;;;;;;17.40;6.65;;;10.80;99.90;;;;;;4987743;28;20046;-54
2022/02/07 03:37:21;;;;;;;10.98;6.45;;;10.80;99.90;;;;;;4984402;28;20102;-50
2022/02/07 03:39:49;;;;;;;10.90;6.55;;;10.80;99.90;;;;;;5002379;28;20038;-53
2022/02/07 03:42:19;;;;;;;10.27;6.55;;;10.80;99.90;;;;;;5004261;28;20042;-54
2022/02/07 03:44:58;;;;;;;14.57;7.05;;;10.80;99.90;;;;;;4992914;28;20569;-51
2022/02/07 03:47:27;;;;;;;12.88;8.48;;;10.80;99.90;;;;;;4993145;28;20042;-50
2022/02/07 03:49:55;;;;;;;11.55;6.30;;;10.80;99.90;;;;;;4993301;28;20125;-52
2022/02/07 03:52:23;;;;;;;13.73;6.93;;;10.70;99.90;;;;;;4993152;28;20396;-50
2022/02/07 03:54:50;;;;;;;12.80;6.70;;;10.70;99.90;;;;;;4994141;28;20050;-51
2022/02/07 03:57:18;;;;;;;13.35;7.07;;;10.80;99.90;;;;;;4992584;28;20515;-49
2022/02/07 03:59:46;;;;;;;10.85;6.72;;;10.80;99.90;;;;;;4992978;28;20038;-49
2022/02/07 04:02:15;;;;;;;12.15;6.45;;;10.90;99.90;;;;;;4977217;28;20113;-50
2022/02/07 04:04:47;;;;;;;11.20;6.93;;;10.90;99.90;;;;;;4994135;28;20039;-50
2022/02/07 04:07:16;;;;;;;10.65;6.40;;;11.00;99.90;;;;;;4993318;28;20097;-51
2022/02/07 04:09:51;;;;;;;9.82;6.55;;;11.00;99.90;;;;;;4993202;28;20486;-52
2022/02/07 04:12:23;;;;;;;10.98;6.95;;;11.00;99.90;;;;;;4993045;28;20118;-54
2022/02/07 04:14:58;;;;;;;15.43;6.95;;;11.00;99.90;;;;;;4992896;28;20038;-51
2022/02/07 04:17:28;;;;;;;13.77;7.50;;;11.00;99.90;;;;;;4993007;28;20115;-51
2022/02/07 04:20:00;;;;;;;13.75;7.80;;;11.00;99.90;;;;;;4992672;28;20046;-49
2022/02/07 04:22:43;;;;;;;14.30;8.65;;;11.00;99.90;;;;;;4992581;28;20042;-49
2022/02/07 04:25:37;;;;;;;13.50;7.53;;;11.00;99.90;;;;;;4991561;28;20108;-51
2022/02/07 04:28:18;;;;;;;17.27;7.78;;;10.90;99.90;;;;;;4992292;28;20045;-53
2022/02/07 04:30:46;;;;;;;9.88;6.10;;;10.90;99.90;;;;;;4960007;28;20077;-51
2022/02/07 04:33:15;;;;;;;17.58;8.02;;;10.90;99.90;;;;;;4992433;28;20049;-52
2022/02/07 04:35:43;;;;;;;11.73;6.93;;;10.90;99.90;;;;;;4992363;28;20133;-53
2022/02/07 04:38:11;;;;;;;12.15;7.78;;;10.90;99.90;;;;;;4993600;28;20034;-51
2022/02/07 04:40:41;;;;;;;11.27;7.75;;;10.80;99.90;;;;;;4994526;28;20402;-49
2022/02/07 04:43:12;;;;;;;13.52;8.73;;;10.80;99.90;;;;;;4980074;28;20125;-53
2022/02/07 04:59:01;;;;;;;10.60;7.82;;;10.70;99.90;;;;;;4996323;28;20055;-50
2022/02/07 05:01:35;;;;;;;14.98;8.35;;;10.70;99.90;;;;;;4996036;28;20073;-51
2022/02/07 05:04:20;;;;;;;16.52;8.73;;;10.70;99.90;;;;;;4996088;28;20408;-53
2022/02/07 05:15:11;;;;;;;13.10;9.05;;;10.60;99.90;;;;;;4997137;28;20396;-53
2022/02/07 05:17:40;;;;;;;15.35;8.68;;;10.60;99.90;;;;;;4995664;28;20140;-54
2022/02/07 05:20:46;;;;;;;16.83;9.43;;;10.60;99.90;;;;;;4955933;29;20058;-50
2022/02/07 05:23:46;;;;;;;16.05;9.05;;;10.60;99.90;;;;;;4934830;29;20483;-51
2022/02/07 05:26:43;;;;;;;21.92;9.32;;;10.60;99.90;;;;;;4975420;28;20523;-52
2022/02/07 05:29:33;;;;;;;16.98;8.60;;;10.60;99.90;;;;;;4994155;28;20054;-53
2022/02/07 05:32:23;;;;;;;19.48;10.32;;;10.60;99.90;;;;;;4992908;28;20090;-49
2022/02/07 05:35:09;;;;;;;18.42;10.18;;;10.70;99.90;;;;;;4996760;28;20042;-49
2022/02/07 05:38:02;;;;;;;20.15;9.23;;;10.70;99.90;;;;;;4990898;28;20054;-49
2022/02/07 05:40:56;;;;;;;16.50;10.10;;;10.70;99.90;;;;;;4991163;28;20061;-52
2022/02/07 05:43:47;;;;;;;18.67;8.82;;;10.70;99.90;;;;;;4996013;28;20500;-53
2022/02/07 05:46:30;;;;;;;19.42;10.27;;;10.70;99.90;;;;;;4996375;28;20481;-49
2022/02/07 05:49:23;;;;;;;15.07;9.18;;;10.60;99.90;;;;;;4990958;28;20058;-50
2022/02/07 05:52:10;;;;;;;14.13;8.93;;;10.60;99.90;;;;;;4989000;28;20050;-52
2022/02/07 05:54:52;;;;;;;16.08;10.23;;;10.60;99.90;;;;;;4978861;28;20084;-51
2022/02/07 05:57:38;;;;;;;21.83;10.80;;;10.60;99.90;;;;;;4995469;28;20058;-52
2022/02/07 06:00:26;;;;;;;12.63;9.52;;;10.70;99.90;;;;;;4996264;28;20093;-52
2022/02/07 06:02:59;;;;;;;17.70;8.52;;;10.70;99.90;;;;;;4963331;28;20101;-51
2022/02/07 06:05:38;;;;;;;16.17;8.05;;;10.70;99.90;;;;;;4996336;28;20781;-49
2022/02/07 06:08:16;;;;;;;16.27;8.38;;;10.80;99.90;;;;;;4980014;28;20042;-49
2022/02/07 06:10:44;;;;;;;17.52;9.32;;;10.80;99.90;;;;;;4978937;28;20050;-52
2022/02/07 06:13:17;;;;;;;12.93;7.32;;;10.80;99.90;;;;;;4994670;28;20042;-50
2022/02/07 06:15:50;;;;;;;14.88;7.18;;;10.90;99.90;;;;;;4995839;28;20122;-52
2022/02/07 06:18:19;;;;;;;10.70;7.00;;;11.10;99.90;;;;;;4995904;28;20100;-51
2022/02/07 06:20:49;;;;;;;10.93;6.97;;;11.40;99.90;;;;;;4994790;28;20152;-50
2022/02/07 06:23:18;;;;;;;9.15;5.40;;;11.60;99.90;;;;;;4994101;28;20095;-50
2022/02/07 06:25:47;;;;;;;11.40;5.65;;;11.90;99.90;;;;;;4994591;28;20046;-50
2022/02/07 06:28:18;;;;;;;12.70;6.82;;;12.20;99.90;;;;;;4994371;28;20038;-49
2022/02/07 06:30:52;;;;;;;;;;;12.30;99.90;;;;;;4979851;28;20548;-50
2022/02/07 06:33:22;;;;;;;7.97;5.80;;;12.70;99.90;;;;;;4994534;28;20439;-49
2022/02/07 06:35:53;;;;;;;8.23;6.75;;;13.00;99.90;;;;;;4994537;28;20042;-50
2022/02/07 06:38:21;;;;;;;8.40;5.70;;;13.50;99.90;;;;;;4994307;28;20444;-51
2022/02/07 06:40:49;;;;;;;8.35;5.40;;;13.90;99.90;;;;;;4994359;28;20158;-49
2022/02/07 06:43:17;;;;;;;19.08;8.80;;;14.30;99.90;;;;;;4994579;28;20057;-50
2022/02/07 06:45:45;;;;;;;7.65;4.70;;;14.90;99.90;;;;;;4994293;28;20489;-50
2022/02/07 06:48:14;;;;;;;11.88;5.97;;;15.40;99.90;;;;;;4994465;28;20121;-52
2022/02/07 06:50:42;;;;;;;13.18;5.45;;;15.70;99.90;;;;;;4995263;28;20039;-49
2022/02/07 06:53:10;;;;;;;13.90;5.93;;;16.00;99.90;;;;;;4995156;28;20493;-49
2022/02/07 06:55:39;;;;;;;8.60;5.85;;;16.30;99.90;;;;;;4993857;28;20105;-49
2022/02/07 06:58:08;;;;;;;8.30;4.15;;;16.80;99.90;;;;;;4993749;28;20154;-51
2022/02/07 07:00:37;;;;;;;11.63;4.97;;;17.30;99.50;;;;;;4994297;28;20089;-49
2022/02/07 07:03:08;;;;;;;12.77;4.55;;;18.00;98.70;;;;;;4993156;28;20045;-48
2022/02/07 07:05:36;;;;;;;7.20;4.82;;;18.40;97.60;;;;;;4994955;28;20044;-50
2022/02/07 07:08:04;;;;;;;9.68;3.65;;;18.60;97.00;;;;;;4994826;28;20133;-52
2022/02/07 07:10:32;;;;;;;8.52;4.35;;;18.60;96.20;;;;;;4977752;28;20054;-50
2022/02/07 07:13:10;;;;;;;9.98;4.32;;;17.80;96.80;;;;;;4993846;28;20109;-50
2022/02/07 07:16:01;;;;;;;9.90;3.95;;;17.20;97.60;;;;;;4993861;28;20054;-49
2022/02/07 07:18:32;;;;;;;9.60;5.20;;;16.30;98.60;;;;;;4993774;28;20101;-49
2022/02/07 07:21:01;;;;;;;9.10;3.70;;;15.30;99.90;;;;;;4988304;28;20050;-54
2022/02/07 07:23:31;;;;;;;8.80;4.03;;;14.50;99.90;;;;;;4993061;28;20401;-51
2022/02/07 07:26:02;;;;;;;7.57;3.35;;;14.00;99.90;;;;;;4974088;28;20042;-53
2022/02/07 07:28:29;;;;;;;9.82;3.47;;;13.70;99.90;;;;;;4989728;28;20393;-51
2022/02/07 07:30:59;;;;;;;6.80;3.75;;;14.00;99.90;;;;;;4983018;28;20073;-53
2022/02/07 07:33:35;;;;;;;10.02;3.55;;;14.50;99.90;;;;;;4992971;28;20060;-53
2022/02/07 07:36:04;;;;;;;6.70;2.53;;;14.80;99.90;;;;;;5003766;28;20044;-54
2022/02/07 07:38:34;;;;;;;6.93;2.83;;;15.20;99.90;;;;;;5001893;28;20046;-52
2022/02/07 07:41:03;;;;;;;6.45;2.70;;;15.60;99.90;;;;;;4999025;28;20038;-54
2022/02/07 07:43:47;;;;;;;6.93;2.88;;;15.90;99.90;;;;;;4978589;28;20052;-54
2022/02/07 07:46:27;;;;;;;4.97;2.63;;;16.40;99.90;;;;;;5005430;28;20038;-52
2022/02/07 07:49:30;;;;;;;8.52;4.30;;;16.50;99.40;;;;;;4983968;28;20115;-53
2022/02/07 07:52:29;;;;;;;10.85;6.43;;;16.70;99.00;;;;;;5000872;28;20064;-55
2022/02/07 08:03:14;;;;;;;8.40;3.73;;;17.30;98.50;;;;;;4992978;28;20477;-52
2022/02/07 08:05:50;;;;;;;12.95;4.03;;;17.00;98.30;;;;;;4992975;28;20050;-54
2022/02/07 08:08:37;;;;;;;6.45;2.33;;;16.60;98.60;;;;;;4993293;28;20042;-51
2022/02/07 08:11:10;;;;;;;6.22;2.67;;;16.30;99.00;;;;;;4992721;28;20053;-52
2022/02/07 08:13:46;;;;;;;5.78;2.92;;;15.90;99.90;;;;;;4993786;28;20042;-55
2022/02/07 08:16:19;;;;;;;6.85;3.25;;;15.90;99.90;;;;;;4996914;28;20070;-55
2022/02/07 08:18:46;;;;;;;5.93;2.63;;;16.00;99.90;;;;;;4998036;28;20058;-51
2022/02/07 08:21:14;;;;;;;4.55;2.33;;;16.20;99.70;;;;;;4996608;28;20051;-55
2022/02/07 08:23:43;;;;;;;4.28;1.83;;;16.20;98.90;;;;;;4996564;28;20042;-54
2022/02/07 08:26:11;;;;;;;4.05;1.95;;;16.40;97.80;;;;;;4996756;28;20043;-54
2022/02/07 08:28:46;;;;;;;7.18;2.30;;;16.40;97.80;;;;;;4998323;28;20049;-53
2022/02/07 08:31:17;;;;;;;4.22;2.20;;;16.50;97.00;;;;;;4998170;28;20389;-54
2022/02/07 08:33:46;;;;;;;6.60;2.20;;;16.50;97.00;;;;;;4997899;28;20078;-52
2022/02/07 08:36:16;;;;;;;7.40;2.65;;;16.70;96.90;;;;;;4996477;28;20481;-54
2022/02/07 08:38:44;;;;;;;8.30;2.58;;;16.70;96.20;;;;;;4996836;28;20046;-54
2022/02/07 08:41:11;;;;;;;4.40;2.55;;;16.50;96.30;;;;;;4997670;28;20084;-52
2022/02/07 08:43:39;;;;;;;9.70;3.22;;;16.60;96.30;;;;;;4997783;28;20046;-53
2022/02/07 08:46:07;;;;;;;2.53;1.83;;;16.60;95.60;;;;;;4996475;28;20041;-54
2022/02/07 08:48:35;;;;;;;9.18;2.47;;;16.60;95.30;;;;;;4996305;28;20426;-52
2022/02/07 08:51:05;;;;;;;8.45;2.92;;;16.60;95.10;;;;;;4996538;28;20035;-52
2022/02/07 08:53:38;;;;;;;6.25;2.08;;;16.80;94.80;;;;;;4996358;28;20073;-52
2022/02/07 08:56:07;;;;;;;2.83;1.48;;;16.90;94.80;;;;;;4997651;28;20050;-52
2022/02/07 08:58:36;;;;;;;3.92;1.50;;;17.00;94.10;;;;;;4997470;28;20158;-54
2022/02/07 09:01:28;;;;;;;7.90;3.35;;;16.90;93.50;;;;;;4996061;28;20485;-54
2022/02/07 09:09:04;;;;;;;4.32;1.90;;;16.80;93.10;;;;;;4997204;28;20084;-55
2022/02/07 09:11:32;;;;;;;8.50;1.88;;;16.80;92.70;;;;;;4996296;28;20038;-55
2022/02/07 09:14:08;;;;;;;5.72;2.17;;;16.80;92.50;;;;;;4997086;28;20057;-55
2022/02/07 09:16:37;;;;;;;3.83;1.90;;;16.80;92.60;;;;;;4997231;28;20048;-52
2022/02/07 09:19:06;;;;;;;6.45;1.70;;;16.90;92.40;;;;;;4997136;28;20050;-53
2022/02/07 09:21:33;;;;;;;4.60;2.08;;;16.80;92.50;;;;;;4996944;28;20153;-54
2022/02/07 09:24:02;;;;;;;4.25;1.80;;;16.80;92.80;;;;;;4996796;28;20129;-54
2022/02/07 09:26:29;;;;;;;7.97;2.10;;;16.80;92.70;;;;;;4994785;28;20556;-52
2022/02/07 09:28:57;;;;;;;5.93;2.03;;;16.70;92.70;;;;;;4997016;28;20500;-53
2022/02/07 09:31:25;;;;;;;5.57;2.33;;;16.50;92.40;;;;;;4996878;28;20042;-55
2022/02/07 09:33:53;;;;;;;3.17;1.90;;;16.60;93.00;;;;;;4996738;28;20058;-53
2022/02/07 09:36:24;;;;;;;8.80;3.15;;;16.70;93.10;;;;;;5000124;28;20030;-53
2022/02/07 09:38:53;;;;;;;4.97;2.22;;;16.80;93.00;;;;;;4994007;28;20038;-55
2022/02/07 09:41:22;;;;;;;4.15;1.88;;;16.80;92.90;;;;;;4999846;28;20038;-53
2022/02/07 09:43:51;;;;;;;23.98;4.43;;;16.70;92.10;;;;;;4999629;28;20069;-49
2022/02/07 09:46:35;;;;;;;6.28;2.50;;;16.80;92.20;;;;;;5006524;28;20070;-52
2022/02/07 09:49:04;;;;;;;6.68;2.70;;;17.00;92.60;;;;;;4994594;28;20046;-52
2022/02/07 09:51:32;;;;;;;4.70;2.85;;;16.80;92.30;;;;;;5001950;28;20390;-53
2022/02/07 09:53:59;;;;;;;4.38;2.42;;;16.90;92.80;;;;;;5003277;28;20552;-53
2022/02/07 09:56:27;;;;;;;4.50;2.97;;;17.10;93.60;;;;;;4976680;28;20553;-51
2022/02/07 09:58:55;;;;;;;5.03;2.92;;;17.10;92.70;;;;;;4976536;28;20133;-54
2022/02/07 10:01:27;;;;;;;6.70;2.63;;;17.20;93.30;;;;;;4975479;28;20050;-52
2022/02/07 10:04:10;;;;;;;6.05;3.45;;;17.10;92.60;;;;;;4976598;28;20430;-51
2022/02/07 10:06:48;;;;;;;11.98;3.58;;;17.10;93.10;;;;;;4975687;28;20479;-51
2022/02/07 10:20:43;;;;;;;3.95;2.33;;;16.90;91.40;;;;;;4975295;28;20049;-50
2022/02/07 10:40:27;;;;;;;9.40;3.28;;;16.40;91.50;;;;;;4976312;28;20122;-51
2022/02/07 10:45:50;;;;;;;7.20;2.50;;;16.90;91.10;;;;;;4975999;28;20093;-53
2022/02/07 10:48:54;;;;;;;2.78;1.70;;;17.00;91.20;;;;;;4975912;28;20058;-53
2022/02/07 10:51:25;;;;;;;4.53;2.88;;;16.90;90.40;;;;;;4972429;28;20062;-53
2022/02/07 10:53:53;;;;;;;4.15;1.98;;;16.90;90.20;;;;;;4975853;28;20049;-53
2022/02/07 10:56:26;;;;;;;5.85;2.00;;;16.90;89.50;;;;;;4958786;28;20121;-54
2022/02/07 10:58:55;;;;;;;3.05;2.10;;;17.00;90.10;;;;;;4975559;28;20442;-53
2022/02/07 11:01:55;;;;;;;4.07;1.95;;;17.00;89.70;;;;;;4975580;28;20058;-51
2022/02/07 11:04:14;;;;;;;3.85;2.35;;;17.20;89.90;;;;;;4973252;28;20172;-48
2022/02/07 11:06:45;;;;;;;4.43;2.55;;;17.10;89.40;;;;;;4975531;28;20043;-51
2022/02/07 11:09:23;;;;;;;9.95;2.38;;;17.10;89.80;;;;;;4975691;28;20039;-50
2022/02/07 11:12:45;;;;;;;5.82;2.15;;;17.20;89.80;;;;;;4974708;28;20102;-52
2022/02/07 11:17:52;;;;;;;6.95;2.70;;;17.30;90.60;;;;;;4975396;28;20501;-52
2022/02/07 11:28:26;;;;;;;9.63;4.60;;;17.50;90.60;;;;;;4975452;28;20043;-57
2022/02/07 11:30:54;;;;;;;4.25;1.92;;;17.40;90.40;;;;;;4975248;28;20046;-54
2022/02/07 11:36:22;;;;;;;;;;;17.50;89.40;;;;;;4975498;28;20042;-57
2022/02/07 11:39:03;;;;;;;8.50;2.47;;;17.40;88.20;;;;;;4973877;28;19922;-54
2022/02/07 11:41:53;;;;;;;9.02;3.40;;;17.40;89.10;;;;;;4975372;28;20121;-56
2022/02/07 11:44:30;;;;;;;3.60;2.28;;;17.40;88.70;;;;;;4973655;28;20059;-55
2022/02/07 11:47:31;;;;;;;2.80;1.92;;;17.50;89.50;;;;;;4975327;28;20043;-55
2022/02/07 11:50:03;;;;;;;6.40;2.33;;;17.60;90.00;;;;;;4974653;28;20082;-53
2022/02/07 11:52:45;;;;;;;6.25;2.20;;;17.60;89.90;;;;;;4974869;28;20038;-52
2022/02/07 11:55:23;;;;;;;5.43;2.15;;;17.70;89.90;;;;;;4973480;28;20074;-54
2022/02/07 12:00:57;;;;;;;5.88;2.80;;;17.60;90.10;;;;;;4973482;28;20050;-52
2022/02/07 12:03:27;;;;;;;9.60;3.92;;;17.60;90.10;;;;;;4974705;28;20043;-55
2022/02/07 12:05:57;;;;;;;6.88;3.03;;;17.70;90.20;;;;;;4974688;28;20039;-55
2022/02/07 12:08:26;;;;;;;10.35;2.97;;;17.60;90.20;;;;;;4957419;28;20082;-53
2022/02/07 12:11:03;;;;;;;8.77;3.67;;;17.60;90.20;;;;;;4974768;28;20498;-54
2022/02/07 12:13:33;;;;;;;6.63;3.08;;;17.60;90.50;;;;;;4974746;28;20050;-55
2022/02/07 12:16:23;;;;;;;4.47;2.58;;;17.60;90.60;;;;;;4974593;28;20413;-54
2022/02/07 12:19:06;;;;;;;6.03;3.33;;;17.50;90.70;;;;;;4974935;28;20051;-55
2022/02/07 12:21:34;;;;;;;6.65;3.88;;;17.60;91.10;;;;;;4974704;28;20047;-56
2022/02/07 12:24:04;;;;;;;6.93;2.25;;;17.60;91.30;;;;;;4974520;28;20054;-55
2022/02/07 12:26:42;;;;;;;4.82;2.15;;;17.30;91.30;;;;;;4973228;28;20043;-55
2022/02/07 12:29:25;;;;;;;5.05;2.60;;;17.00;91.80;;;;;;4973636;28;20051;-55
2022/02/07 12:31:54;;;;;;;3.95;2.63;;;16.70;92.30;;;;;;4974650;28;20051;-53
2022/02/07 12:34:26;;;;;;;10.57;3.33;;;16.70;92.40;;;;;;4974414;28;20051;-54
2022/02/07 12:36:55;;;;;;;4.38;2.47;;;16.60;92.00;;;;;;4974425;28;20043;-54
2022/02/07 12:39:23;;;;;;;14.35;3.25;;;16.50;92.80;;;;;;4974243;28;20047;-55
2022/02/07 12:41:51;;;;;;;8.82;3.38;;;16.40;93.40;;;;;;4974566;28;20053;-56
2022/02/07 12:44:23;;;;;;;11.82;4.88;;;16.50;93.50;;;;;;4974342;28;20509;-53
2022/02/07 12:46:51;;;;;;;11.45;3.35;;;16.60;93.90;;;;;;4974492;28;20039;-51
2022/02/07 12:49:23;;;;;;;4.63;2.55;;;16.70;93.80;;;;;;4974107;28;20045;-56
2022/02/07 12:51:51;;;;;;;8.00;3.10;;;16.80;93.70;;;;;;4990979;28;20051;-57
2022/02/07 12:54:21;;;;;;;7.53;2.88;;;16.90;93.60;;;;;;4992271;28;20042;-55
2022/02/07 12:56:50;;;;;;;5.18;2.25;;;16.90;94.00;;;;;;4999123;28;20038;-57
2022/02/07 12:59:20;;;;;;;11.05;3.67;;;16.70;93.40;;;;;;4998625;28;20511;-57
2022/02/07 13:01:47;;;;;;;6.75;3.45;;;16.80;93.00;;;;;;4975409;28;20569;-55
2022/02/07 13:04:19;;;;;;;12.40;3.45;;;16.70;93.80;;;;;;5001832;28;20448;-57
2022/02/07 13:06:50;;;;;;;5.65;3.40;;;16.70;94.20;;;;;;4977096;28;20047;-54
2022/02/07 13:09:29;;;;;;;11.70;3.78;;;16.60;93.60;;;;;;4976059;28;20042;-54
2022/02/07 13:12:12;;;;;;;12.43;5.00;;;16.40;93.70;;;;;;4977683;28;20430;-55
2022/02/07 13:14:41;;;;;;;9.18;2.33;;;16.40;94.00;;;;;;4976650;28;20382;-56
2022/02/07 13:17:11;;;;;;;7.93;3.20;;;16.30;94.00;;;;;;4976249;28;20045;-55
2022/02/07 13:19:41;;;;;;;8.52;3.47;;;16.20;93.60;;;;;;4977622;28;20047;-55
2022/02/07 13:22:11;;;;;;;9.32;3.47;;;16.10;93.80;;;;;;4976194;28;20046;-54
2022/02/07 13:24:40;;;;;;;11.95;5.18;;;16.00;94.00;;;;;;4977418;28;20042;-55
2022/02/07 13:27:12;;;;;;;10.07;4.90;;;16.00;94.00;;;;;;4977294;28;20042;-54
2022/02/07 13:29:54;;;;;;;11.93;5.88;;;16.00;94.00;;;;;;4977345;28;20489;-54
2022/02/07 13:32:26;;;;;;;7.15;4.15;;;16.10;93.80;;;;;;4976609;28;20051;-58
2022/02/07 13:35:13;;;;;;;10.30;3.83;;;16.10;93.70;;;;;;4983277;28;20042;-58
2022/02/07 13:37:43;;;;;;;6.88;3.17;;;16.10;93.70;;;;;;4991410;28;20044;-56
2022/02/07 13:40:14;;;;;;;5.78;3.45;;;15.90;93.70;;;;;;4994737;28;20046;-55
2022/02/07 13:42:45;;;;;;;7.53;3.53;;;15.90;93.70;;;;;;5003305;28;20049;-55
2022/02/07 13:45:24;;;;;;;6.57;2.90;;;15.80;93.70;;;;;;4992304;28;20047;-58
2022/02/07 13:47:54;;;;;;;7.05;4.90;;;15.80;93.80;;;;;;5002565;28;20034;-55
2022/02/07 13:50:33;;;;;;;13.98;3.17;;;15.80;93.90;;;;;;4989040;28;20388;-56
2022/02/07 13:53:05;;;;;;;6.13;3.15;;;15.70;93.80;;;;;;4976143;28;20046;-56
2022/02/07 13:55:41;;;;;;;8.18;3.65;;;15.70;93.80;;;;;;4992504;28;20038;-56
2022/02/07 13:58:18;;;;;;;8.77;3.58;;;15.60;93.90;;;;;;4976119;28;20057;-54
2022/02/07 14:00:49;;;;;;;8.52;3.65;;;15.50;94.30;;;;;;4990751;28;20039;-57
2022/02/07 14:03:22;;;;;;;6.30;3.58;;;15.50;94.60;;;;;;4974749;28;20047;-57
2022/02/07 14:05:55;;;;;;;8.80;3.58;;;15.50;94.80;;;;;;4975318;28;20050;-56
2022/02/07 14:08:35;;;;;;;10.88;3.50;;;15.40;94.80;;;;;;4975764;28;20035;-57
2022/02/07 14:11:24;;;;;;;;;;;15.40;94.90;;;;;;4976302;28;20370;-57
2022/02/07 14:13:55;;;;;;;7.68;3.72;;;15.50;95.00;;;;;;4953852;28;19918;-57
2022/02/07 14:16:25;;;;;;;13.18;3.15;;;15.50;95.10;;;;;;4967270;28;20109;-54
2022/02/07 14:18:57;;;;;;;8.40;3.72;;;15.50;95.20;;;;;;4972773;28;20042;-57
2022/02/07 14:21:30;;;;;;;9.85;2.85;;;15.40;95.10;;;;;;4973033;28;20054;-55
2022/02/07 14:23:59;;;;;;;5.85;2.65;;;15.40;95.30;;;;;;4960792;28;20039;-56
2022/02/07 14:26:47;;;;;;;6.03;3.10;;;15.40;95.40;;;;;;4974142;28;20172;-56
2022/02/07 14:29:15;;;;;;;5.40;3.38;;;15.40;95.70;;;;;;4972432;28;20059;-59
2022/02/07 14:31:43;;;;;;;7.20;3.13;;;15.30;96.00;;;;;;4971832;28;20046;-55
2022/02/07 14:34:12;;;;;;;7.18;4.00;;;15.40;96.30;;;;;;4973076;28;20457;-57
2022/02/07 14:36:40;;;;;;;8.55;3.33;;;15.30;96.30;;;;;;4956189;28;20042;-58
2022/02/07 14:39:08;;;;;;;5.00;3.53;;;15.20;96.50;;;;;;4972641;28;20057;-57
2022/02/07 14:41:37;;;;;;;5.85;3.53;;;15.20;96.80;;;;;;4971999;28;20509;-56
2022/02/07 14:44:07;;;;;;;9.13;4.00;;;15.20;97.00;;;;;;4973359;28;20050;-57
2022/02/07 14:46:43;;;;;;;8.48;4.80;;;15.20;97.20;;;;;;4974145;28;20047;-58
2022/02/07 14:49:14;;;;;;;11.43;5.43;;;15.20;97.30;;;;;;4975337;28;20047;-56
2022/02/07 14:51:42;;;;;;;10.18;3.75;;;15.20;97.40;;;;;;4972460;28;20065;-58
2022/02/07 14:54:10;;;;;;;11.00;5.03;;;15.10;97.30;;;;;;4985795;28;20177;-57
2022/02/07 14:56:37;;;;;;;11.27;4.47;;;15.10;97.40;;;;;;4980483;28;20074;-55
2022/02/07 14:59:06;;;;;;;15.30;4.65;;;15.10;97.50;;;;;;4974650;28;20057;-57
2022/02/07 15:01:34;;;;;;;11.25;3.55;;;15.00;97.50;;;;;;4973865;28;20049;-58
2022/02/07 15:04:02;;;;;;;12.32;4.50;;;15.00;97.60;;;;;;4974798;28;20046;-58
2022/02/07 15:06:31;;;;;;;11.82;4.70;;;14.90;97.80;;;;;;4986621;28;20065;-55
2022/02/07 15:08:59;;;;;;;12.32;4.30;;;15.00;97.90;;;;;;4993519;28;20046;-56
2022/02/07 15:11:27;;;;;;;9.25;4.63;;;15.10;97.90;;;;;;5002726;28;20374;-55
2022/02/07 15:13:54;;;;;;;14.70;6.25;;;15.10;97.80;;;;;;5001591;28;20089;-54
2022/02/07 15:16:22;;;;;;;12.10;5.13;;;15.00;97.90;;;;;;5003516;28;20042;-55
2022/02/07 15:18:50;;;;;;;10.88;5.70;;;15.00;98.00;;;;;;4986481;28;20125;-55
2022/02/07 15:21:17;;;;;;;10.45;5.85;;;15.10;98.10;;;;;;4992963;28;20046;-58
2022/02/07 15:23:45;;;;;;;12.15;5.25;;;15.10;98.20;;;;;;5003983;28;20121;-54
2022/02/07 15:26:14;;;;;;;16.45;5.20;;;15.10;98.30;;;;;;4990592;28;20133;-55
2022/02/07 15:28:44;;;;;;;12.23;5.15;;;15.00;98.50;;;;;;4993290;28;20149;-55
2022/02/07 15:31:11;;;;;;;13.05;4.47;;;15.00;98.80;;;;;;4993772;28;20053;-55
2022/02/07 15:33:43;;;;;;;11.15;4.78;;;15.00;99.10;;;;;;4993501;28;20120;-54
2022/02/07 15:36:11;;;;;;;11.15;5.20;;;15.00;99.40;;;;;;4994755;28;20097;-54
2022/02/07 15:38:40;;;;;;;10.95;4.75;;;15.00;99.50;;;;;;4993404;28;20081;-55
2022/02/07 15:41:08;;;;;;;9.65;3.83;;;15.00;99.40;;;;;;4994324;28;20054;-55
2022/02/07 15:43:36;;;;;;;19.70;4.75;;;15.00;99.50;;;;;;4994295;28;20807;-55
2022/02/07 15:46:04;;;;;;;7.57;3.90;;;15.00;99.30;;;;;;4994607;28;20077;-56
2022/02/07 15:48:35;;;;;;;6.80;3.58;;;15.00;99.00;;;;;;4994613;28;20061;-52